createdAt,value
2022-08-30T00:00:02.090Z,14.95
2022-08-30T00:02:53.225Z,14.89
2022-08-30T00:05:21.423Z,14.86
2022-08-30T00:07:50.323Z,14.80
2022-08-30T00:10:19.264Z,14.76
2022-08-30T00:12:49.083Z,14.73
2022-08-30T00:15:19.907Z,14.71
2022-08-30T00:17:48.495Z,14.69
2022-08-30T00:20:20.736Z,14.69
2022-08-30T00:22:49.059Z,14.69
2022-08-30T00:25:19.457Z,14.68
2022-08-30T00:27:47.645Z,14.67
2022-08-30T00:30:17.683Z,14.64
2022-08-30T00:32:46.063Z,14.63
2022-08-30T00:35:16.749Z,14.60
2022-08-30T00:37:45.207Z,14.58
2022-08-30T00:40:16.203Z,14.56
2022-08-30T00:42:44.737Z,14.54
2022-08-30T00:45:25.847Z,14.49
2022-08-30T00:47:54.204Z,14.44
2022-08-30T00:50:28.364Z,14.41
2022-08-30T00:53:00.262Z,14.36
2022-08-30T00:55:29.681Z,14.31
2022-08-30T00:58:02.355Z,14.31
2022-08-30T01:05:39.877Z,14.29
2022-08-30T01:08:08.097Z,14.28
2022-08-30T01:10:37.863Z,14.29
2022-08-30T01:13:06.624Z,14.29
2022-08-30T01:15:35.465Z,14.32
2022-08-30T01:18:04.103Z,14.37
2022-08-30T01:20:47.560Z,14.40
2022-08-30T01:23:18.527Z,14.44
2022-08-30T01:25:50.018Z,14.48
2022-08-30T01:28:23.184Z,14.49
2022-08-30T01:30:51.669Z,14.51
2022-08-30T01:33:20.405Z,14.54
2022-08-30T01:35:56.671Z,14.58
2022-08-30T01:38:36.542Z,14.61
2022-08-30T01:41:15.482Z,14.62
2022-08-30T01:43:44.555Z,14.59
2022-08-30T01:46:14.942Z,14.59
2022-08-30T01:48:50.214Z,14.58
2022-08-30T01:51:25.391Z,14.57
2022-08-30T01:53:54.689Z,14.57
2022-08-30T01:56:24.751Z,14.57
2022-08-30T01:58:53.723Z,14.56
2022-08-30T02:01:24.503Z,14.55
2022-08-30T02:03:55.130Z,14.53
2022-08-30T02:06:24.237Z,14.52
2022-08-30T02:08:52.343Z,14.50
2022-08-30T02:11:20.977Z,14.51
2022-08-30T02:13:49.323Z,14.52
2022-08-30T02:16:23.005Z,14.53
2022-08-30T02:18:56.289Z,14.56
2022-08-30T02:21:27.991Z,14.60
2022-08-30T02:23:56.214Z,14.66
2022-08-30T02:26:25.438Z,14.72
2022-08-30T02:28:53.847Z,14.79
2022-08-30T02:31:22.805Z,14.83
2022-08-30T02:33:53.064Z,14.86
2022-08-30T02:36:22.189Z,14.87
2022-08-30T02:38:51.338Z,14.88
2022-08-30T02:41:20.791Z,14.87
2022-08-30T02:43:48.912Z,14.83
2022-08-30T02:46:18.177Z,14.79
2022-08-30T02:48:46.403Z,14.76
2022-08-30T02:51:15.257Z,14.73
2022-08-30T02:53:44.883Z,14.70
2022-08-30T02:56:14.639Z,14.63
2022-08-30T02:58:44.575Z,14.59
2022-08-30T03:01:15.484Z,14.55
2022-08-30T03:03:45.957Z,14.53
2022-08-30T03:06:14.459Z,14.52
2022-08-30T03:08:42.911Z,14.53
2022-08-30T03:11:11.212Z,14.55
2022-08-30T03:13:39.533Z,14.58
2022-08-30T03:16:07.775Z,14.64
2022-08-30T03:18:35.966Z,14.67
2022-08-30T03:21:10.468Z,14.71
2022-08-30T03:23:38.828Z,14.76
2022-08-30T03:26:08.382Z,14.80
2022-08-30T03:28:36.562Z,14.83
2022-08-30T03:31:05.734Z,14.85
2022-08-30T03:33:34.089Z,14.87
2022-08-30T03:36:02.429Z,14.88
2022-08-30T03:38:31.398Z,14.89
2022-08-30T03:41:00.204Z,14.91
2022-08-30T03:43:28.516Z,14.95
2022-08-30T03:45:58.238Z,14.92
2022-08-30T03:48:27.002Z,14.91
2022-08-30T03:50:55.564Z,14.93
2022-08-30T03:53:25.743Z,14.97
2022-08-30T03:55:55.799Z,14.97
2022-08-30T03:58:25.893Z,14.92
2022-08-30T04:00:54.118Z,14.93
2022-08-30T04:03:26.100Z,14.97
2022-08-30T04:05:55.694Z,15.02
2022-08-30T04:08:24.958Z,15.07
2022-08-30T04:10:54.034Z,15.12
2022-08-30T04:13:24.131Z,15.18
2022-08-30T04:15:52.338Z,15.25
2022-08-30T04:18:20.778Z,15.27
2022-08-30T04:20:48.964Z,15.28
2022-08-30T04:23:17.278Z,15.29
2022-08-30T04:25:46.370Z,15.31
2022-08-30T04:28:14.969Z,15.35
2022-08-30T04:30:44.581Z,15.38
2022-08-30T04:33:14.462Z,15.38
2022-08-30T04:35:44.976Z,15.41
2022-08-30T04:38:13.920Z,15.44
2022-08-30T04:40:44.360Z,15.45
2022-08-30T04:43:15.234Z,15.48
2022-08-30T04:45:43.579Z,15.45
2022-08-30T04:48:11.784Z,15.46
2022-08-30T04:50:39.996Z,15.49
2022-08-30T04:53:13.784Z,15.57
2022-08-30T04:55:43.445Z,15.63
2022-08-30T04:58:11.901Z,15.71
2022-08-30T05:00:42.234Z,15.79
2022-08-30T05:03:10.468Z,15.83
2022-08-30T05:05:41.777Z,15.87
2022-08-30T05:08:13.270Z,15.91
2022-08-30T05:10:44.644Z,15.96
2022-08-30T05:13:16.875Z,16.00
2022-08-30T05:15:45.644Z,16.01
2022-08-30T05:18:15.858Z,16.05
2022-08-30T05:20:44.455Z,16.08
2022-08-30T05:23:12.710Z,16.10
2022-08-30T05:25:42.621Z,16.18
2022-08-30T05:28:10.976Z,16.23
2022-08-30T05:30:39.476Z,16.27
2022-08-30T05:33:07.774Z,16.33
2022-08-30T05:35:36.287Z,16.38
2022-08-30T05:38:04.497Z,16.44
2022-08-30T05:40:32.647Z,16.56
2022-08-30T05:43:01.165Z,16.80
2022-08-30T05:45:29.268Z,17.01
2022-08-30T05:47:57.601Z,17.18
2022-08-30T05:50:26.260Z,17.30
2022-08-30T05:52:54.328Z,17.35
2022-08-30T05:55:22.470Z,17.40
2022-08-30T05:57:50.856Z,17.43
2022-08-30T06:00:19.382Z,17.47
2022-08-30T06:02:47.698Z,17.42
2022-08-30T06:05:15.968Z,17.43
2022-08-30T06:07:45.053Z,17.47
2022-08-30T06:10:13.244Z,17.49
2022-08-30T06:12:43.501Z,17.52
2022-08-30T06:15:12.427Z,17.57
2022-08-30T06:17:40.649Z,17.62
2022-08-30T06:20:09.322Z,17.59
2022-08-30T06:22:39.035Z,17.54
2022-08-30T06:25:07.800Z,17.54
2022-08-30T06:27:35.999Z,17.58
2022-08-30T06:30:08.297Z,17.64
2022-08-30T06:32:37.213Z,17.71
2022-08-30T06:35:06.820Z,17.74
2022-08-30T06:37:35.172Z,17.75
2022-08-30T06:40:04.563Z,17.74
2022-08-30T06:42:33.850Z,17.71
2022-08-30T06:45:02.955Z,17.74
2022-08-30T06:47:40.617Z,17.76
2022-08-30T06:50:12.058Z,17.79
2022-08-30T06:52:42.852Z,17.86
2022-08-30T06:55:13.458Z,17.92
2022-08-30T06:57:42.561Z,17.99
2022-08-30T07:00:14.906Z,18.10
2022-08-30T07:02:43.710Z,18.23
2022-08-30T07:05:15.379Z,18.31
2022-08-30T07:07:46.407Z,18.42
2022-08-30T07:10:15.849Z,18.45
2022-08-30T07:12:43.976Z,18.51
2022-08-30T07:15:12.656Z,18.61
2022-08-30T07:17:59.817Z,18.71
2022-08-30T07:20:39.911Z,18.75
2022-08-30T07:23:10.050Z,18.73
2022-08-30T07:25:39.897Z,18.74
2022-08-30T07:28:09.532Z,18.74
2022-08-30T07:30:38.067Z,18.69
2022-08-30T07:33:06.860Z,18.66
2022-08-30T07:35:35.490Z,18.64
2022-08-30T07:38:03.781Z,18.69
2022-08-30T07:40:32.393Z,18.75
2022-08-30T07:43:02.320Z,18.83
2022-08-30T07:45:30.832Z,18.94
2022-08-30T07:47:59.145Z,19.02
2022-08-30T07:50:27.622Z,19.07
2022-08-30T07:52:56.073Z,19.10
2022-08-30T07:55:24.314Z,19.12
2022-08-30T07:57:52.547Z,19.17
2022-08-30T08:00:21.115Z,19.23
2022-08-30T08:02:49.430Z,19.29
2022-08-30T08:05:19.411Z,19.26
2022-08-30T08:07:50.380Z,19.25
2022-08-30T08:10:19.147Z,19.36
2022-08-30T08:12:47.259Z,19.47
2022-08-30T08:15:15.508Z,19.58
2022-08-30T08:17:43.602Z,19.68
2022-08-30T08:20:12.005Z,19.82
2022-08-30T08:22:40.411Z,19.94
2022-08-30T08:25:09.190Z,20.09
2022-08-30T08:27:37.302Z,20.22
2022-08-30T08:30:06.179Z,20.28
2022-08-30T08:32:34.457Z,20.35
2022-08-30T08:35:03.035Z,20.32
2022-08-30T08:37:31.658Z,20.23
2022-08-30T08:39:59.867Z,20.11
2022-08-30T08:42:42.658Z,20.02
2022-08-30T08:45:15.061Z,19.94
2022-08-30T08:47:55.442Z,19.96
2022-08-30T08:50:24.261Z,20.04
2022-08-30T08:53:46.116Z,20.04
2022-08-30T08:56:17.433Z,19.99
2022-08-30T08:58:48.940Z,20.04
2022-08-30T09:01:19.988Z,20.00
2022-08-30T09:03:48.611Z,20.05
2022-08-30T09:06:54.008Z,20.21
2022-08-30T09:09:27.699Z,20.41
2022-08-30T09:11:55.851Z,20.62
2022-08-30T09:14:33.299Z,20.67
2022-08-30T09:17:05.442Z,20.60
2022-08-30T09:19:53.761Z,20.61
2022-08-30T09:22:39.868Z,20.67
2022-08-30T09:25:12.978Z,20.83
2022-08-30T09:27:46.985Z,21.02
2022-08-30T09:30:27.166Z,20.94
2022-08-30T09:33:24.745Z,20.96
2022-08-30T09:35:54.115Z,21.09
2022-08-30T09:38:33.613Z,21.18
2022-08-30T09:41:42.701Z,21.29
2022-08-30T09:44:14.511Z,21.27
2022-08-30T09:46:49.546Z,21.34
2022-08-30T09:49:33.401Z,21.36
2022-08-30T09:52:29.239Z,21.40
2022-08-30T09:55:11.113Z,21.52
2022-08-30T09:57:58.081Z,21.77
2022-08-30T10:00:29.172Z,21.94
2022-08-30T10:03:36.207Z,21.99
2022-08-30T10:06:14.632Z,21.88
2022-08-30T10:09:03.548Z,21.85
2022-08-30T10:11:37.669Z,21.81
2022-08-30T10:14:24.205Z,21.61
2022-08-30T10:17:03.958Z,21.53
2022-08-30T10:19:51.910Z,21.65
2022-08-30T10:22:28.822Z,21.94
2022-08-30T10:25:05.749Z,22.17
2022-08-30T10:27:42.084Z,22.26
2022-08-30T10:30:14.838Z,22.28
2022-08-30T10:33:05.710Z,22.24
2022-08-30T10:35:48.656Z,22.29
2022-08-30T10:38:24.763Z,22.36
2022-08-30T10:41:19.426Z,22.44
2022-08-30T10:44:18.518Z,22.43
2022-08-30T10:47:05.133Z,22.39
2022-08-30T10:49:44.668Z,22.47
2022-08-30T10:52:37.544Z,22.63
2022-08-30T10:55:21.995Z,22.81
2022-08-30T10:57:52.378Z,23.14
2022-08-30T11:00:31.718Z,23.48
2022-08-30T11:03:12.615Z,23.71
2022-08-30T11:06:03.248Z,23.94
2022-08-30T11:09:02.088Z,24.17
2022-08-30T11:12:11.773Z,24.21
2022-08-30T11:14:43.296Z,23.96
2022-08-30T11:17:29.206Z,23.57
2022-08-30T11:20:00.839Z,23.10
2022-08-30T11:22:39.097Z,22.90
2022-08-30T11:25:13.011Z,22.76
2022-08-30T11:27:44.296Z,22.56
2022-08-30T11:30:24.413Z,22.52
2022-08-30T11:33:09.389Z,22.52
2022-08-30T11:35:50.058Z,22.62
2022-08-30T11:38:27.534Z,22.71
2022-08-30T11:40:56.606Z,22.67
2022-08-30T11:43:37.069Z,22.58
2022-08-30T11:46:15.101Z,22.51
2022-08-30T11:48:54.321Z,22.54
2022-08-30T11:51:30.158Z,22.57
2022-08-30T11:54:36.611Z,22.78
2022-08-30T11:57:22.663Z,22.83
2022-08-30T11:59:50.879Z,22.96
2022-08-30T12:02:59.498Z,22.97
2022-08-30T12:05:43.117Z,23.13
2022-08-30T12:08:20.429Z,23.12
2022-08-30T12:10:50.231Z,23.05
2022-08-30T12:13:40.127Z,23.24
2022-08-30T12:17:05.787Z,23.45
2022-08-30T12:19:36.042Z,23.33
2022-08-30T12:22:17.643Z,23.19
2022-08-30T12:24:51.908Z,23.02
2022-08-30T12:27:27.213Z,22.96
2022-08-30T12:30:08.353Z,23.04
2022-08-30T12:32:46.430Z,23.19
2022-08-30T12:35:25.080Z,23.29
2022-08-30T12:38:06.114Z,23.24
2022-08-30T12:40:37.100Z,22.98
2022-08-30T12:43:17.354Z,22.73
2022-08-30T12:45:50.721Z,22.63
2022-08-30T12:48:20.576Z,22.59
2022-08-30T12:50:59.389Z,22.61
2022-08-30T12:53:29.204Z,22.75
2022-08-30T12:56:05.353Z,22.73
2022-08-30T12:58:53.855Z,22.67
2022-08-30T13:01:28.301Z,22.99
2022-08-30T13:03:56.929Z,23.26
2022-08-30T13:06:48.915Z,23.47
2022-08-30T13:09:32.635Z,23.68
2022-08-30T13:12:04.654Z,23.73
2022-08-30T13:14:35.503Z,23.72
2022-08-30T13:17:21.537Z,23.66
2022-08-30T13:20:17.610Z,23.57
2022-08-30T13:23:10.605Z,23.43
2022-08-30T13:25:40.157Z,23.50
2022-08-30T13:28:08.490Z,23.72
2022-08-30T13:30:36.619Z,23.75
2022-08-30T13:33:05.417Z,23.66
2022-08-30T13:35:33.972Z,23.41
2022-08-30T13:38:02.774Z,22.97
2022-08-30T13:40:31.309Z,22.60
2022-08-30T13:42:59.523Z,22.33
2022-08-30T13:45:43.641Z,22.12
2022-08-30T13:48:14.026Z,21.95
2022-08-30T13:50:43.173Z,21.98
2022-08-30T13:53:11.553Z,22.10
2022-08-30T13:55:43.039Z,22.29
2022-08-30T13:58:15.095Z,22.41
2022-08-30T14:00:46.172Z,22.38
2022-08-30T14:03:15.776Z,22.37
2022-08-30T14:05:49.818Z,22.38
2022-08-30T14:11:13.008Z,22.08
2022-08-30T14:16:32.562Z,21.66
2022-08-30T14:19:01.211Z,21.53
2022-08-30T14:21:29.513Z,21.40
2022-08-30T14:23:59.634Z,21.42
2022-08-30T14:26:36.302Z,21.59
2022-08-30T14:29:09.025Z,21.72
2022-08-30T14:31:39.385Z,21.82
2022-08-30T14:34:09.499Z,21.86
2022-08-30T14:36:41.891Z,21.69
2022-08-30T14:39:15.209Z,21.50
2022-08-30T14:41:49.668Z,21.47
2022-08-30T14:44:20.452Z,21.45
2022-08-30T14:46:48.485Z,21.44
2022-08-30T14:49:17.716Z,21.44
2022-08-30T14:51:46.433Z,21.34
2022-08-30T14:54:16.995Z,21.29
2022-08-30T14:56:51.363Z,21.26
2022-08-30T14:59:19.948Z,21.21
2022-08-30T15:01:48.011Z,21.16
2022-08-30T15:04:17.378Z,21.08
2022-08-30T15:06:48.761Z,21.02
2022-08-30T15:09:23.474Z,20.95
2022-08-30T15:11:58.650Z,20.90
2022-08-30T15:14:28.919Z,20.87
2022-08-30T15:16:59.183Z,20.87
2022-08-30T15:19:27.659Z,20.84
2022-08-30T15:22:01.277Z,20.76
2022-08-30T15:24:30.249Z,20.75
2022-08-30T15:27:00.314Z,20.66
2022-08-30T15:29:29.894Z,20.58
2022-08-30T15:32:01.629Z,20.48
2022-08-30T15:34:31.182Z,20.41
2022-08-30T15:37:02.270Z,20.31
2022-08-30T15:39:31.557Z,20.23
2022-08-30T15:42:01.456Z,20.19
2022-08-30T15:44:31.464Z,20.14
2022-08-30T15:47:07.449Z,20.13
2022-08-30T15:49:35.967Z,20.14
2022-08-30T15:52:05.495Z,20.16
2022-08-30T15:54:36.050Z,20.15
2022-08-30T15:57:05.826Z,20.13
2022-08-30T15:59:34.152Z,20.10
2022-08-30T16:02:02.998Z,20.03
2022-08-30T16:04:31.570Z,19.95
2022-08-30T16:06:59.703Z,19.87
2022-08-30T16:09:32.340Z,19.78
2022-08-30T16:12:02.439Z,19.71
2022-08-30T16:14:34.415Z,19.68
2022-08-30T16:17:03.023Z,19.64
2022-08-30T16:19:31.399Z,19.61
2022-08-30T16:22:00.007Z,19.57
2022-08-30T16:24:28.230Z,19.52
2022-08-30T16:26:56.439Z,19.46
2022-08-30T16:29:24.929Z,19.41
2022-08-30T16:31:53.183Z,19.35
2022-08-30T16:34:22.565Z,19.29
2022-08-30T16:36:50.808Z,19.23
2022-08-30T16:39:18.928Z,19.16
2022-08-30T16:41:48.497Z,19.12
2022-08-30T16:44:18.401Z,19.08
2022-08-30T16:46:53.412Z,19.07
2022-08-30T16:49:25.545Z,19.07
2022-08-30T16:51:55.029Z,19.06
2022-08-30T16:54:23.744Z,19.05
2022-08-30T16:56:52.724Z,19.04
2022-08-30T16:59:21.978Z,18.99
2022-08-30T17:01:50.606Z,18.93
2022-08-30T17:04:19.745Z,18.91
2022-08-30T17:06:49.946Z,18.87
2022-08-30T17:09:20.083Z,18.84
2022-08-30T17:11:48.400Z,18.82
2022-08-30T17:14:22.889Z,18.81
2022-08-30T17:17:00.338Z,18.80
2022-08-30T17:19:30.096Z,18.77
2022-08-30T17:21:59.469Z,18.74
2022-08-30T17:24:27.993Z,18.67
2022-08-30T17:26:58.271Z,18.61
2022-08-30T17:29:27.564Z,18.57
2022-08-30T17:31:56.959Z,18.52
2022-08-30T17:34:27.099Z,18.44
2022-08-30T17:36:58.337Z,18.36
2022-08-30T17:39:28.485Z,18.28
2022-08-30T17:41:57.276Z,18.21
2022-08-30T17:44:30.150Z,18.14
2022-08-30T17:46:59.519Z,18.08
2022-08-30T17:49:29.366Z,17.99
2022-08-30T17:51:58.354Z,17.89
2022-08-30T17:54:28.742Z,17.80
2022-08-30T17:56:58.311Z,17.73
2022-08-30T17:59:36.341Z,17.67
2022-08-30T18:02:05.421Z,17.61
2022-08-30T18:04:35.174Z,17.55
2022-08-30T18:07:03.609Z,17.48
2022-08-30T18:09:34.048Z,17.43
2022-08-30T18:12:02.383Z,17.36
2022-08-30T18:14:30.500Z,17.28
2022-08-30T18:16:58.647Z,17.21
2022-08-30T18:19:28.779Z,17.13
2022-08-30T18:21:57.148Z,17.07
2022-08-30T18:24:26.151Z,16.99
2022-08-30T18:26:55.093Z,16.92
2022-08-30T18:29:29.246Z,16.88
2022-08-30T18:32:01.564Z,16.84
2022-08-30T18:34:30.528Z,16.76
2022-08-30T18:36:58.768Z,16.71
2022-08-30T18:39:27.465Z,16.66
2022-08-30T18:44:44.043Z,16.60
2022-08-30T18:47:12.187Z,16.58
2022-08-30T18:49:40.430Z,16.58
2022-08-30T18:52:11.476Z,16.59
2022-08-30T18:54:51.911Z,16.60
2022-08-30T18:57:22.693Z,16.59
2022-08-30T18:59:50.908Z,16.59
2022-08-30T19:02:19.160Z,16.58
2022-08-30T19:04:49.053Z,16.57
2022-08-30T19:07:18.659Z,16.56
2022-08-30T19:09:47.801Z,16.53
2022-08-30T19:12:16.165Z,16.53
2022-08-30T19:14:44.320Z,16.54
2022-08-30T19:17:12.956Z,16.51
2022-08-30T19:19:48.597Z,16.49
2022-08-30T19:22:20.548Z,16.48
2022-08-30T19:24:50.334Z,16.46
2022-08-30T19:27:21.566Z,16.46
2022-08-30T19:30:16.191Z,16.44
2022-08-30T19:32:48.351Z,16.42
2022-08-30T19:35:17.771Z,16.39
2022-08-30T19:37:47.744Z,16.37
2022-08-30T19:40:19.193Z,16.34
2022-08-30T19:42:48.556Z,16.31
2022-08-30T19:45:18.946Z,16.31
2022-08-30T19:47:51.390Z,16.28
2022-08-30T19:50:21.576Z,16.26
2022-08-30T19:52:54.120Z,16.25
2022-08-30T19:55:28.734Z,16.26
2022-08-30T19:57:58.742Z,16.26
2022-08-30T20:00:27.059Z,16.26
2022-08-30T20:03:01.534Z,16.26
2022-08-30T20:05:31.876Z,16.25
2022-08-30T20:08:00.374Z,16.24
2022-08-30T20:10:29.499Z,16.19
2022-08-30T20:12:58.119Z,16.11
2022-08-30T20:15:26.428Z,16.04
2022-08-30T20:18:14.223Z,16.00
2022-08-30T20:20:49.373Z,16.02
2022-08-30T20:23:22.888Z,16.05
2022-08-30T20:24:29.069Z,16.63
2022-08-30T20:25:53.783Z,16.08
2022-08-30T20:28:22.988Z,16.09
2022-08-30T20:30:52.380Z,16.10
2022-08-30T20:33:21.912Z,16.10
2022-08-30T20:35:51.759Z,16.09
2022-08-30T20:38:21.437Z,16.07
2022-08-30T20:40:53.284Z,16.07
2022-08-30T20:43:23.662Z,16.07
2022-08-30T20:45:52.736Z,16.05
2022-08-30T20:48:21.857Z,16.05
2022-08-30T20:50:49.990Z,16.05
2022-08-30T20:53:18.319Z,16.03
2022-08-30T20:55:47.890Z,16.03
2022-08-30T20:58:16.097Z,16.04
2022-08-30T21:00:49.934Z,16.05
2022-08-30T21:03:27.397Z,16.07
2022-08-30T21:05:56.960Z,16.10
2022-08-30T21:08:25.456Z,16.09
2022-08-30T21:10:54.710Z,16.07
2022-08-30T21:13:23.018Z,16.08
2022-08-30T21:15:53.295Z,16.10
2022-08-30T21:18:23.693Z,16.09
2022-08-30T21:20:52.492Z,16.04
2022-08-30T21:23:20.870Z,16.05
2022-08-30T21:25:49.048Z,16.06
2022-08-30T21:28:17.789Z,16.08
2022-08-30T21:30:47.537Z,16.10
2022-08-30T21:33:15.851Z,16.11
2022-08-30T21:36:03.071Z,16.12
2022-08-30T21:38:31.240Z,16.11
2022-08-30T21:40:59.637Z,16.11
2022-08-30T21:43:27.713Z,16.10
2022-08-30T21:45:56.099Z,16.13
2022-08-30T21:48:24.477Z,16.14
2022-08-30T21:50:55.330Z,16.15
2022-08-30T21:53:23.301Z,16.16
2022-08-30T21:55:51.511Z,16.17
2022-08-30T21:58:19.930Z,16.19
2022-08-30T22:00:48.839Z,16.19
2022-08-30T22:03:17.342Z,16.20
2022-08-30T22:05:51.815Z,16.20
2022-08-30T22:08:20.110Z,16.21
2022-08-30T22:10:48.235Z,16.20
2022-08-30T22:13:16.731Z,16.20
2022-08-30T22:15:45.955Z,16.21
2022-08-30T22:18:14.133Z,16.23
2022-08-30T22:20:43.093Z,16.24
2022-08-30T22:23:18.865Z,16.25
2022-08-30T22:25:47.115Z,16.25
2022-08-30T22:28:15.476Z,16.23
2022-08-30T22:30:43.691Z,16.22
2022-08-30T22:33:12.062Z,16.21
2022-08-30T22:35:41.445Z,16.22
2022-08-30T22:38:10.478Z,16.23
2022-08-30T22:40:45.610Z,16.24
2022-08-30T22:43:14.857Z,16.25
2022-08-30T22:45:43.068Z,16.28
2022-08-30T22:48:12.105Z,16.29
2022-08-30T22:50:40.924Z,16.31
2022-08-30T22:53:09.149Z,16.30
2022-08-30T22:55:40.980Z,16.29
2022-08-30T22:58:09.360Z,16.29
2022-08-30T23:00:40.834Z,16.29
2022-08-30T23:03:14.896Z,16.30
2022-08-30T23:05:43.067Z,16.30
2022-08-30T23:08:11.296Z,16.30
2022-08-30T23:10:40.967Z,16.30
2022-08-30T23:13:09.210Z,16.28
2022-08-30T23:15:37.368Z,16.26
2022-08-30T23:18:06.753Z,16.23
2022-08-30T23:20:35.259Z,16.22
2022-08-30T23:23:03.432Z,16.22
2022-08-30T23:25:52.246Z,16.24
2022-08-30T23:28:39.943Z,16.25
2022-08-30T23:31:33.459Z,16.25
2022-08-30T23:34:21.086Z,16.25
2022-08-30T23:37:08.159Z,16.25
2022-08-30T23:39:56.283Z,16.21
2022-08-30T23:42:43.147Z,16.17
2022-08-30T23:45:30.248Z,16.15
2022-08-30T23:48:17.140Z,16.16
2022-08-30T23:51:03.736Z,16.20
2022-08-30T23:53:50.802Z,16.23
2022-08-30T23:56:36.996Z,16.24
2022-08-30T23:59:24.178Z,16.24
